createdAt,value
2023-03-11T00:00:57.536Z,14.15
2023-03-11T00:02:00.119Z,15.88
2023-03-11T00:03:04.333Z,14.95
2023-03-11T00:04:07.541Z,14.43
2023-03-11T00:05:27.569Z,15.30
2023-03-11T00:06:30.322Z,14.00
2023-03-11T00:07:32.724Z,15.30
2023-03-11T00:08:35.333Z,14.70
2023-03-11T00:09:38.119Z,15.65
2023-03-11T00:10:42.570Z,14.48
2023-03-11T00:11:45.170Z,15.20
2023-03-11T00:12:47.865Z,15.57
2023-03-11T00:13:50.496Z,13.82
2023-03-11T00:14:52.988Z,15.25
2023-03-11T00:15:56.628Z,14.98
2023-03-11T00:16:59.177Z,14.73
2023-03-11T00:18:01.695Z,15.82
2023-03-11T00:19:04.354Z,14.82
2023-03-11T00:20:07.494Z,16.40
2023-03-11T00:21:16.558Z,14.05
2023-03-11T00:22:19.154Z,15.10
2023-03-11T00:23:21.718Z,15.70
2023-03-11T00:24:24.426Z,14.88
2023-03-11T00:25:29.575Z,13.45
2023-03-11T00:26:32.072Z,14.73
2023-03-11T00:27:35.688Z,13.68
2023-03-11T00:28:38.276Z,13.43
2023-03-11T00:29:40.723Z,14.15
2023-03-11T00:30:44.802Z,13.50
2023-03-11T00:31:47.736Z,14.25
2023-03-11T00:32:51.827Z,13.57
2023-03-11T00:33:54.980Z,13.48
2023-03-11T00:34:57.513Z,13.77
2023-03-11T00:36:00.425Z,13.82
2023-03-11T00:37:03.092Z,15.10
2023-03-11T00:38:07.562Z,14.27
2023-03-11T00:39:11.214Z,14.60
2023-03-11T00:40:16.785Z,14.23
2023-03-11T00:41:19.766Z,14.88
2023-03-11T00:42:22.538Z,14.32
2023-03-11T00:43:25.035Z,15.38
2023-03-11T00:44:27.479Z,13.95
2023-03-11T00:45:30.985Z,12.70
2023-03-11T00:46:33.676Z,12.98
2023-03-11T00:47:36.296Z,13.40
2023-03-11T00:48:38.780Z,13.48
2023-03-11T00:49:41.259Z,14.82
2023-03-11T00:50:44.744Z,13.70
2023-03-11T00:51:47.609Z,13.95
2023-03-11T00:52:51.526Z,13.85
2023-03-11T00:53:54.200Z,14.23
2023-03-11T00:54:56.995Z,14.90
2023-03-11T00:56:01.412Z,13.90
2023-03-11T00:57:04.113Z,15.18
2023-03-11T00:58:07.510Z,14.05
2023-03-11T00:59:36.408Z,13.85
2023-03-11T01:00:39.057Z,13.73
2023-03-11T01:01:41.833Z,13.82
2023-03-11T01:02:44.525Z,14.45
2023-03-11T01:03:47.519Z,14.27
2023-03-11T01:04:55.053Z,13.32
2023-03-11T01:05:57.885Z,13.57
2023-03-11T01:07:00.714Z,13.57
2023-03-11T01:08:04.013Z,13.73
2023-03-11T01:09:07.008Z,14.20
2023-03-11T01:10:10.860Z,14.60
2023-03-11T01:11:13.628Z,14.55
2023-03-11T01:12:16.091Z,13.65
2023-03-11T01:13:18.643Z,15.18
2023-03-11T01:14:21.713Z,14.13
2023-03-11T01:15:28.223Z,14.00
2023-03-11T01:16:30.696Z,14.20
2023-03-11T01:17:33.310Z,14.40
2023-03-11T01:18:35.890Z,15.00
2023-03-11T01:19:38.536Z,14.38
2023-03-11T01:20:41.174Z,13.88
2023-03-11T01:21:43.888Z,13.73
2023-03-11T01:22:46.668Z,14.35
2023-03-11T01:23:49.367Z,14.25
2023-03-11T01:24:51.950Z,14.13
2023-03-11T01:25:54.565Z,14.48
2023-03-11T01:26:57.209Z,14.48
2023-03-11T01:28:00.571Z,14.10
2023-03-11T01:29:04.867Z,14.55
2023-03-11T01:30:08.207Z,14.35
2023-03-11T01:31:11.341Z,14.98
2023-03-11T01:32:14.275Z,14.80
2023-03-11T01:33:18.592Z,13.55
2023-03-11T01:34:21.269Z,13.85
2023-03-11T01:35:26.165Z,13.95
2023-03-11T01:36:29.506Z,12.95
2023-03-11T01:37:33.124Z,13.70
2023-03-11T01:38:36.187Z,14.55
2023-03-11T01:39:38.730Z,15.50
2023-03-11T01:40:49.734Z,13.43
2023-03-11T01:41:53.690Z,13.43
2023-03-11T01:42:56.626Z,13.55
2023-03-11T01:43:59.211Z,13.13
2023-03-11T01:45:33.777Z,12.32
2023-03-11T01:46:54.935Z,14.07
2023-03-11T01:48:00.510Z,12.80
2023-03-11T01:49:04.753Z,12.95
2023-03-11T01:50:13.170Z,12.80
2023-03-11T01:51:19.303Z,12.82
2023-03-11T01:52:22.317Z,12.85
2023-03-11T01:53:27.148Z,13.32
2023-03-11T01:54:35.574Z,12.07
2023-03-11T01:55:38.822Z,11.23
2023-03-11T01:56:42.523Z,12.02
2023-03-11T01:57:46.720Z,12.30
2023-03-11T01:58:52.358Z,12.68
2023-03-11T01:59:57.881Z,11.75
2023-03-11T02:01:02.034Z,11.88
2023-03-11T02:02:12.061Z,12.77
2023-03-11T02:03:22.189Z,12.25
2023-03-11T02:04:24.836Z,10.82
2023-03-11T02:05:29.058Z,12.32
2023-03-11T02:06:32.712Z,12.38
2023-03-11T02:07:35.432Z,11.65
2023-03-11T02:08:39.218Z,11.55
2023-03-11T02:09:43.353Z,11.75
2023-03-11T02:10:46.393Z,11.82
2023-03-11T02:11:50.497Z,12.05
2023-03-11T02:12:53.586Z,11.55
2023-03-11T02:14:04.043Z,12.13
2023-03-11T02:15:07.698Z,10.55
2023-03-11T02:16:11.358Z,10.20
2023-03-11T02:17:14.126Z,11.48
2023-03-11T02:18:22.298Z,12.00
2023-03-11T02:20:02.018Z,11.68
2023-03-11T02:21:14.116Z,10.35
2023-03-11T02:22:17.253Z,10.93
2023-03-11T02:23:22.459Z,10.48
2023-03-11T02:24:34.720Z,10.73
2023-03-11T02:25:43.112Z,10.15
2023-03-11T02:27:05.544Z,11.00
2023-03-11T02:28:11.974Z,11.75
2023-03-11T02:29:15.386Z,10.93
2023-03-11T02:30:18.460Z,10.88
2023-03-11T02:31:24.558Z,10.45
2023-03-11T02:32:27.578Z,10.75
2023-03-11T02:33:32.363Z,10.75
2023-03-11T02:34:37.307Z,10.88
2023-03-11T02:35:39.844Z,10.18
2023-03-11T02:36:43.444Z,10.68
2023-03-11T02:37:51.755Z,10.13
2023-03-11T02:38:55.070Z,10.38
2023-03-11T02:40:20.254Z,10.60
2023-03-11T02:41:23.670Z,9.75
2023-03-11T02:42:32.641Z,9.60
2023-03-11T02:43:40.480Z,11.57
2023-03-11T02:44:45.883Z,10.73
2023-03-11T02:45:48.951Z,9.13
2023-03-11T02:46:51.885Z,9.93
2023-03-11T02:47:56.438Z,10.52
2023-03-11T02:49:00.280Z,10.13
2023-03-11T02:50:03.063Z,9.90
2023-03-11T02:51:06.806Z,9.25
2023-03-11T02:52:09.455Z,10.40
2023-03-11T02:53:12.006Z,10.63
2023-03-11T02:54:14.935Z,9.25
2023-03-11T02:55:20.329Z,9.88
2023-03-11T02:56:23.147Z,9.63
2023-03-11T02:57:25.680Z,9.40
2023-03-11T02:58:28.214Z,9.10
2023-03-11T02:59:30.872Z,9.27
2023-03-11T03:00:34.939Z,9.35
2023-03-11T03:01:41.347Z,8.65
2023-03-11T03:02:45.317Z,8.95
2023-03-11T03:03:48.020Z,9.30
2023-03-11T03:04:50.682Z,9.18
2023-03-11T03:05:53.123Z,8.70
2023-03-11T03:06:56.299Z,9.02
2023-03-11T03:07:58.814Z,9.70
2023-03-11T03:09:01.372Z,8.55
2023-03-11T03:10:06.019Z,7.38
2023-03-11T03:11:08.439Z,9.35
2023-03-11T03:12:10.924Z,9.60
2023-03-11T03:13:13.748Z,9.50
2023-03-11T03:14:16.320Z,8.20
2023-03-11T03:15:19.183Z,9.27
2023-03-11T03:16:22.613Z,9.75
2023-03-11T03:17:26.117Z,8.88
2023-03-11T03:18:29.025Z,8.45
2023-03-11T03:19:31.645Z,8.90
2023-03-11T03:20:34.243Z,9.15
2023-03-11T03:21:37.927Z,8.52
2023-03-11T03:22:42.124Z,9.02
2023-03-11T03:23:46.399Z,9.65
2023-03-11T03:24:49.031Z,9.10
2023-03-11T03:25:51.624Z,8.68
2023-03-11T03:26:54.515Z,9.25
2023-03-11T03:27:57.166Z,8.38
2023-03-11T03:29:00.607Z,8.23
2023-03-11T03:30:07.670Z,7.45
2023-03-11T03:31:11.497Z,7.57
2023-03-11T03:32:16.393Z,8.00
2023-03-11T03:33:19.246Z,8.57
2023-03-11T03:34:21.867Z,8.35
2023-03-11T03:35:24.535Z,9.07
2023-03-11T03:36:32.938Z,9.05
2023-03-11T03:37:38.939Z,7.68
2023-03-11T03:38:41.698Z,8.45
2023-03-11T03:39:44.270Z,8.38
2023-03-11T03:40:48.675Z,8.95
2023-03-11T03:41:54.127Z,8.02
2023-03-11T03:42:58.755Z,8.10
2023-03-11T03:44:01.726Z,8.55
2023-03-11T03:45:07.671Z,8.10
2023-03-11T03:46:10.865Z,8.23
2023-03-11T03:47:17.476Z,8.43
2023-03-11T03:48:19.948Z,8.88
2023-03-11T03:49:23.572Z,8.82
2023-03-11T03:50:26.560Z,8.38
2023-03-11T03:51:31.687Z,9.73
2023-03-11T03:52:45.445Z,9.05
2023-03-11T03:53:48.319Z,9.05
2023-03-11T03:54:51.222Z,7.53
2023-03-11T03:55:54.782Z,9.23
2023-03-11T03:56:58.832Z,10.20
2023-03-11T03:58:01.391Z,11.18
2023-03-11T03:59:08.452Z,10.23
2023-03-11T04:00:18.208Z,10.68
2023-03-11T04:01:25.044Z,9.60
2023-03-11T04:02:28.252Z,9.38
2023-03-11T04:03:32.140Z,7.57
2023-03-11T04:04:41.028Z,8.00
2023-03-11T04:05:44.500Z,8.65
2023-03-11T04:06:48.653Z,8.77
2023-03-11T04:07:51.458Z,9.02
2023-03-11T04:08:54.795Z,7.65
2023-03-11T04:10:02.669Z,7.65
2023-03-11T04:11:07.445Z,7.20
2023-03-11T04:12:15.409Z,8.20
2023-03-11T04:13:18.151Z,8.02
2023-03-11T04:14:21.317Z,7.82
2023-03-11T04:15:29.575Z,7.82
2023-03-11T04:16:32.628Z,8.70
2023-03-11T04:17:40.297Z,7.72
2023-03-11T04:18:43.307Z,7.90
2023-03-11T04:19:45.892Z,9.65
2023-03-11T04:20:48.609Z,10.45
2023-03-11T04:21:54.337Z,13.80
2023-03-11T04:22:58.344Z,14.38
2023-03-11T04:24:00.964Z,15.23
2023-03-11T04:25:08.537Z,16.92
2023-03-11T04:26:10.996Z,16.17
2023-03-11T04:27:13.903Z,15.00
2023-03-11T04:28:16.919Z,14.00
2023-03-11T04:29:20.788Z,14.40
2023-03-11T04:30:26.465Z,16.48
2023-03-11T04:31:32.007Z,16.35
2023-03-11T04:32:37.205Z,12.15
2023-03-11T04:33:40.526Z,14.95
2023-03-11T04:34:45.520Z,16.17
2023-03-11T04:35:49.853Z,19.60
2023-03-11T04:36:54.746Z,19.02
2023-03-11T04:38:02.315Z,22.88
2023-03-11T04:39:05.056Z,22.10
2023-03-11T04:40:12.824Z,17.15
2023-03-11T04:41:15.917Z,20.50
2023-03-11T04:42:20.237Z,17.48
2023-03-11T04:43:23.857Z,19.02
2023-03-11T04:44:26.492Z,15.82
2023-03-11T04:45:29.051Z,19.20
2023-03-11T04:46:33.721Z,18.77
2023-03-11T04:47:37.972Z,15.30
2023-03-11T04:48:41.611Z,13.50
2023-03-11T04:49:44.609Z,13.65
2023-03-11T04:50:47.945Z,13.10
2023-03-11T04:51:51.169Z,12.18
2023-03-11T04:52:57.253Z,11.13
2023-03-11T04:54:00.051Z,10.38
2023-03-11T04:55:04.885Z,9.30
2023-03-11T04:56:08.604Z,8.07
2023-03-11T04:57:13.621Z,7.88
2023-03-11T04:58:18.761Z,7.63
2023-03-11T04:59:22.828Z,7.50
2023-03-11T05:00:27.113Z,6.53
2023-03-11T05:01:38.625Z,6.90
2023-03-11T05:02:43.756Z,6.72
2023-03-11T05:03:47.939Z,7.78
2023-03-11T05:04:50.677Z,6.85
2023-03-11T05:05:56.662Z,6.30
2023-03-11T05:06:59.614Z,6.50
2023-03-11T05:08:02.364Z,7.45
2023-03-11T05:09:06.186Z,6.32
2023-03-11T05:10:12.414Z,5.95
2023-03-11T05:11:14.935Z,6.60
2023-03-11T05:12:19.412Z,6.47
2023-03-11T05:13:25.791Z,6.47
2023-03-11T05:14:28.851Z,5.32
2023-03-11T05:15:32.985Z,6.22
2023-03-11T05:16:37.753Z,6.10
2023-03-11T05:17:41.249Z,6.43
2023-03-11T05:18:43.910Z,6.72
2023-03-11T05:19:49.042Z,5.95
2023-03-11T05:20:59.439Z,5.68
2023-03-11T05:22:05.887Z,6.03
2023-03-11T05:23:08.540Z,6.20
2023-03-11T05:24:12.492Z,6.07
2023-03-11T05:25:15.202Z,5.70
2023-03-11T05:26:18.845Z,6.05
2023-03-11T05:27:21.471Z,6.13
2023-03-11T05:28:28.426Z,5.88
2023-03-11T05:29:31.652Z,5.80
2023-03-11T05:30:34.807Z,5.68
2023-03-11T05:31:39.107Z,5.82
2023-03-11T05:32:41.719Z,6.30
2023-03-11T05:33:44.266Z,5.82
2023-03-11T05:34:49.121Z,5.50
2023-03-11T05:35:52.728Z,5.50
2023-03-11T05:36:56.088Z,5.43
2023-03-11T05:37:59.647Z,5.72
2023-03-11T05:39:05.032Z,6.22
2023-03-11T05:40:12.187Z,5.50
2023-03-11T05:41:14.714Z,5.35
2023-03-11T05:42:21.352Z,4.85
2023-03-11T05:43:25.813Z,5.47
2023-03-11T05:44:31.087Z,5.53
2023-03-11T05:45:33.675Z,5.22
2023-03-11T05:46:37.704Z,5.90
2023-03-11T05:47:45.173Z,6.40
2023-03-11T05:48:49.726Z,4.90
2023-03-11T05:49:52.254Z,5.15
2023-03-11T05:50:55.768Z,5.88
2023-03-11T05:51:59.119Z,6.22
2023-03-11T05:53:03.316Z,5.10
2023-03-11T05:54:15.077Z,5.00
2023-03-11T05:55:20.697Z,4.75
2023-03-11T05:56:23.815Z,4.88
2023-03-11T05:57:28.418Z,4.47
2023-03-11T05:58:32.848Z,5.25
2023-03-11T05:59:35.652Z,4.18
2023-03-11T06:00:40.369Z,4.50
2023-03-11T06:01:43.433Z,4.88
2023-03-11T06:02:46.677Z,4.65
2023-03-11T06:03:52.414Z,4.80
2023-03-11T06:04:55.187Z,4.88
2023-03-11T06:05:57.887Z,4.28
2023-03-11T06:07:00.518Z,4.28
2023-03-11T06:08:05.814Z,4.85
2023-03-11T06:09:12.615Z,3.78
2023-03-11T06:10:15.327Z,4.15
2023-03-11T06:11:18.761Z,5.25
2023-03-11T06:12:21.478Z,3.75
2023-03-11T06:13:31.910Z,4.20
2023-03-11T06:14:34.381Z,4.05
2023-03-11T06:15:38.641Z,4.63
2023-03-11T06:16:41.966Z,4.22
2023-03-11T06:17:45.044Z,3.83
2023-03-11T06:18:48.157Z,3.97
2023-03-11T06:19:51.041Z,4.40
2023-03-11T06:20:54.436Z,4.70
2023-03-11T06:21:57.018Z,3.70
2023-03-11T06:22:59.556Z,4.55
2023-03-11T06:24:03.254Z,4.80
2023-03-11T06:25:06.625Z,3.38
2023-03-11T06:26:13.360Z,4.22
2023-03-11T06:27:17.869Z,3.85
2023-03-11T06:28:20.691Z,4.15
2023-03-11T06:29:24.515Z,4.10
2023-03-11T06:30:27.488Z,4.35
2023-03-11T06:31:50.410Z,3.95
2023-03-11T06:32:53.172Z,4.57
2023-03-11T06:33:56.176Z,3.85
2023-03-11T06:34:58.658Z,4.25
2023-03-11T06:36:02.422Z,4.30
2023-03-11T06:37:05.574Z,4.53
2023-03-11T06:38:08.161Z,4.25
2023-03-11T06:39:15.671Z,4.47
2023-03-11T06:40:20.612Z,3.97
2023-03-11T06:41:24.552Z,4.13
2023-03-11T06:42:27.256Z,4.72
2023-03-11T06:43:34.928Z,4.00
2023-03-11T06:44:38.666Z,3.88
2023-03-11T06:45:41.203Z,4.32
2023-03-11T06:46:44.556Z,4.53
2023-03-11T06:47:47.864Z,4.28
2023-03-11T06:48:54.719Z,4.05
2023-03-11T06:49:59.129Z,3.90
2023-03-11T06:51:02.769Z,4.38
2023-03-11T06:52:06.718Z,4.15
2023-03-11T06:53:09.399Z,4.85
2023-03-11T06:54:12.536Z,6.20
2023-03-11T06:55:15.251Z,4.80
2023-03-11T06:56:17.900Z,4.82
2023-03-11T06:57:24.706Z,5.22
2023-03-11T06:58:29.994Z,4.38
2023-03-11T06:59:32.473Z,5.32
2023-03-11T07:00:35.425Z,5.03
2023-03-11T07:01:39.635Z,5.82
2023-03-11T07:02:43.471Z,5.35
2023-03-11T07:03:47.995Z,4.85
2023-03-11T07:04:50.542Z,5.13
2023-03-11T07:05:54.349Z,5.35
2023-03-11T07:06:57.120Z,5.30
2023-03-11T07:07:59.653Z,5.13
2023-03-11T07:09:02.292Z,5.57
2023-03-11T07:10:06.758Z,5.53
2023-03-11T07:11:19.153Z,5.35
2023-03-11T07:12:25.424Z,5.38
2023-03-11T07:13:29.002Z,7.07
2023-03-11T07:14:31.577Z,7.95
2023-03-11T07:15:34.063Z,6.40
2023-03-11T07:16:39.032Z,6.15
2023-03-11T07:17:46.737Z,7.10
2023-03-11T07:18:50.324Z,7.03
2023-03-11T07:19:53.200Z,6.82
2023-03-11T07:20:55.700Z,7.78
2023-03-11T07:21:58.314Z,8.00
2023-03-11T07:23:01.010Z,7.38
2023-03-11T07:24:04.895Z,8.90
2023-03-11T07:25:07.778Z,8.90
2023-03-11T07:26:12.122Z,7.40
2023-03-11T07:27:15.228Z,6.85
2023-03-11T07:28:17.706Z,7.85
2023-03-11T07:29:20.986Z,8.02
2023-03-11T07:30:23.562Z,8.20
2023-03-11T07:31:28.958Z,8.70
2023-03-11T07:32:31.459Z,8.30
2023-03-11T07:33:34.383Z,7.70
2023-03-11T07:34:36.853Z,7.90
2023-03-11T07:35:39.535Z,8.00
2023-03-11T07:36:42.565Z,7.68
2023-03-11T07:37:45.210Z,7.60
2023-03-11T07:38:47.901Z,7.38
2023-03-11T07:39:50.579Z,7.30
2023-03-11T07:40:59.501Z,6.88
2023-03-11T07:42:02.150Z,8.30
2023-03-11T07:43:15.167Z,9.95
2023-03-11T07:44:18.336Z,11.57
2023-03-11T07:45:20.790Z,10.25
2023-03-11T07:46:24.734Z,9.95
2023-03-11T07:47:27.218Z,10.52
2023-03-11T07:48:29.857Z,9.82
2023-03-11T07:49:32.900Z,10.05
2023-03-11T07:50:35.398Z,8.30
2023-03-11T07:51:39.264Z,8.95
2023-03-11T07:52:41.889Z,8.95
2023-03-11T07:53:44.517Z,8.50
2023-03-11T07:54:47.367Z,8.68
2023-03-11T07:55:49.933Z,8.52
2023-03-11T07:56:52.368Z,8.43
2023-03-11T07:57:55.036Z,8.32
2023-03-11T07:58:59.221Z,9.30
2023-03-11T08:00:01.901Z,9.15
2023-03-11T08:01:16.698Z,9.13
2023-03-11T08:02:19.383Z,8.10
2023-03-11T08:03:22.041Z,9.27
2023-03-11T08:04:24.570Z,9.00
2023-03-11T08:05:27.076Z,9.48
2023-03-11T08:06:31.903Z,9.40
2023-03-11T08:07:34.446Z,9.35
2023-03-11T08:08:36.900Z,9.40
2023-03-11T08:09:39.417Z,9.15
2023-03-11T08:10:42.043Z,8.85
2023-03-11T08:11:44.726Z,8.75
2023-03-11T08:12:47.352Z,10.30
2023-03-11T08:13:50.740Z,8.70
2023-03-11T08:14:53.332Z,10.00
2023-03-11T08:15:55.905Z,9.88
2023-03-11T08:16:58.372Z,8.90
2023-03-11T08:18:01.217Z,10.10
2023-03-11T08:19:03.810Z,9.73
2023-03-11T08:20:08.958Z,10.93
2023-03-11T08:21:16.358Z,9.65
2023-03-11T08:22:18.872Z,11.15
2023-03-11T08:23:21.362Z,11.57
2023-03-11T08:24:23.981Z,12.95
2023-03-11T08:25:26.589Z,10.25
2023-03-11T08:26:29.535Z,12.82
2023-03-11T08:27:32.243Z,11.73
2023-03-11T08:28:34.845Z,11.40
2023-03-11T08:29:37.360Z,11.82
2023-03-11T08:30:41.930Z,11.68
2023-03-11T08:31:44.496Z,12.00
2023-03-11T08:32:47.268Z,12.07
2023-03-11T08:33:51.461Z,11.57
2023-03-11T08:34:54.184Z,12.50
2023-03-11T08:35:56.790Z,13.70
2023-03-11T08:36:59.690Z,14.45
2023-03-11T08:38:02.191Z,15.15
2023-03-11T08:39:04.941Z,14.45
2023-03-11T08:40:08.071Z,14.25
2023-03-11T08:41:10.813Z,13.23
2023-03-11T08:42:13.235Z,13.95
2023-03-11T08:43:16.327Z,13.50
2023-03-11T08:44:18.910Z,13.77
2023-03-11T08:45:21.875Z,14.85
2023-03-11T08:46:27.950Z,14.40
2023-03-11T08:47:35.728Z,15.43
2023-03-11T08:48:38.387Z,15.80
2023-03-11T08:49:40.927Z,13.50
2023-03-11T08:50:53.535Z,14.40
2023-03-11T08:51:57.295Z,13.82
2023-03-11T08:53:03.278Z,14.73
2023-03-11T08:54:05.924Z,15.32
2023-03-11T08:55:11.283Z,15.52
2023-03-11T08:56:14.311Z,14.88
2023-03-11T08:57:16.743Z,15.82
2023-03-11T08:58:20.439Z,15.55
2023-03-11T08:59:22.979Z,15.02
2023-03-11T09:00:25.491Z,14.10
2023-03-11T09:01:29.739Z,13.57
2023-03-11T09:02:32.365Z,11.93
2023-03-11T09:03:35.686Z,11.95
2023-03-11T09:04:38.126Z,14.07
2023-03-11T09:05:40.901Z,12.38
2023-03-11T09:06:44.447Z,12.07
2023-03-11T09:07:47.236Z,9.90
2023-03-11T09:08:50.094Z,11.00
2023-03-11T09:09:52.536Z,9.25
2023-03-11T09:10:55.203Z,9.77
2023-03-11T09:11:57.800Z,10.27
2023-03-11T09:13:00.313Z,9.55
2023-03-11T09:14:03.269Z,9.43
2023-03-11T09:15:06.429Z,9.38
2023-03-11T09:16:17.635Z,10.20
2023-03-11T09:17:20.228Z,10.27
2023-03-11T09:18:22.921Z,11.40
2023-03-11T09:19:25.574Z,10.95
2023-03-11T09:20:28.150Z,9.70
2023-03-11T09:21:30.564Z,9.15
2023-03-11T09:22:33.072Z,9.35
2023-03-11T09:23:35.610Z,9.30
2023-03-11T09:24:38.061Z,10.60
2023-03-11T09:25:40.540Z,9.27
2023-03-11T09:26:43.160Z,8.85
2023-03-11T09:27:45.586Z,9.18
2023-03-11T09:28:49.477Z,9.85
2023-03-11T09:29:52.200Z,8.40
2023-03-11T09:30:54.732Z,8.32
2023-03-11T09:31:57.321Z,9.07
2023-03-11T09:33:00.117Z,8.55
2023-03-11T09:34:02.686Z,7.47
2023-03-11T09:35:05.608Z,7.97
2023-03-11T09:36:10.116Z,8.10
2023-03-11T09:37:13.204Z,8.10
2023-03-11T09:38:15.789Z,7.07
2023-03-11T09:39:18.238Z,7.00
2023-03-11T09:40:22.669Z,6.30
2023-03-11T09:41:58.001Z,6.35
2023-03-11T09:43:51.747Z,5.40
2023-03-11T09:45:04.849Z,6.30
2023-03-11T09:46:44.200Z,5.00
2023-03-11T09:48:32.301Z,5.65
2023-03-11T09:49:41.231Z,5.30
2023-03-11T09:51:08.329Z,5.97
2023-03-11T09:52:13.605Z,6.20
2023-03-11T09:53:26.034Z,5.68
2023-03-11T09:54:30.805Z,6.00
2023-03-11T09:55:37.355Z,5.30
2023-03-11T09:56:44.469Z,6.07
2023-03-11T09:57:47.387Z,5.68
2023-03-11T09:58:53.162Z,4.90
2023-03-11T09:59:55.895Z,5.47
2023-03-11T10:00:58.361Z,5.07
2023-03-11T10:02:01.276Z,5.10
2023-03-11T10:03:11.594Z,3.72
2023-03-11T10:04:44.972Z,5.78
2023-03-11T10:05:47.549Z,4.35
2023-03-11T10:06:50.193Z,5.00
2023-03-11T10:08:35.831Z,4.60
2023-03-11T10:09:43.803Z,4.22
2023-03-11T10:10:58.340Z,5.07
2023-03-11T10:12:25.957Z,6.13
2023-03-11T10:13:43.827Z,4.82
2023-03-11T10:14:59.533Z,4.15
2023-03-11T10:16:09.183Z,5.35
2023-03-11T10:17:26.448Z,5.30
2023-03-11T10:18:41.372Z,6.03
2023-03-11T10:19:45.440Z,5.22
2023-03-11T10:21:03.159Z,5.68
2023-03-11T10:22:17.699Z,5.05
2023-03-11T10:23:56.687Z,5.47
2023-03-11T10:25:11.196Z,4.93
2023-03-11T10:26:29.848Z,5.22
2023-03-11T10:27:39.374Z,4.55
2023-03-11T10:28:45.528Z,5.35
2023-03-11T10:30:06.896Z,4.65
2023-03-11T10:31:20.223Z,5.13
2023-03-11T10:32:47.324Z,4.75
2023-03-11T10:33:55.251Z,4.50
2023-03-11T10:35:19.379Z,4.40
2023-03-11T10:36:26.546Z,5.00
2023-03-11T10:37:49.655Z,4.03
2023-03-11T10:38:54.876Z,3.92
2023-03-11T10:40:05.889Z,4.60
2023-03-11T10:41:27.855Z,3.92
2023-03-11T10:42:30.410Z,3.25
2023-03-11T10:43:37.897Z,3.33
2023-03-11T10:44:41.866Z,3.67
2023-03-11T10:45:46.431Z,3.83
2023-03-11T10:46:48.977Z,3.47
2023-03-11T10:47:51.480Z,4.22
2023-03-11T10:48:54.663Z,4.55
2023-03-11T10:49:57.153Z,3.00
2023-03-11T10:51:22.668Z,2.95
2023-03-11T10:52:25.289Z,3.28
2023-03-11T10:53:28.117Z,3.47
2023-03-11T10:54:41.160Z,3.72
2023-03-11T10:55:50.903Z,3.10
2023-03-11T10:57:02.629Z,2.28
2023-03-11T10:58:13.321Z,2.78
2023-03-11T10:59:46.437Z,3.00
2023-03-11T11:01:16.734Z,3.95
2023-03-11T11:02:29.503Z,4.38
2023-03-11T11:03:33.506Z,3.88
2023-03-11T11:04:38.481Z,3.17
2023-03-11T11:05:41.362Z,3.97
2023-03-11T11:06:43.852Z,3.55
2023-03-11T11:07:50.908Z,4.13
2023-03-11T11:09:16.182Z,3.75
2023-03-11T11:10:23.543Z,3.58
2023-03-11T11:11:26.094Z,4.20
2023-03-11T11:12:28.519Z,4.65
2023-03-11T11:13:34.743Z,3.33
2023-03-11T11:14:51.923Z,4.70
2023-03-11T11:16:15.979Z,4.30
2023-03-11T11:17:29.127Z,4.90
2023-03-11T11:18:35.017Z,4.40
2023-03-11T11:19:44.627Z,4.13
2023-03-11T11:21:19.611Z,4.18
2023-03-11T11:22:23.017Z,3.42
2023-03-11T11:23:34.920Z,3.50
2023-03-11T11:24:45.088Z,4.68
2023-03-11T11:25:58.692Z,3.92
2023-03-11T11:27:15.508Z,5.10
2023-03-11T11:28:20.823Z,4.72
2023-03-11T11:29:23.312Z,4.65
2023-03-11T11:30:27.213Z,4.65
2023-03-11T11:31:29.858Z,5.18
2023-03-11T11:32:32.543Z,4.07
2023-03-11T11:33:50.357Z,3.58
2023-03-11T11:34:58.762Z,4.50
2023-03-11T11:36:05.433Z,4.00
2023-03-11T11:37:13.084Z,4.90
2023-03-11T11:38:15.718Z,4.63
2023-03-11T11:39:20.839Z,4.38
2023-03-11T11:40:31.975Z,4.00
2023-03-11T11:41:36.798Z,4.15
2023-03-11T11:42:41.723Z,4.25
2023-03-11T11:43:48.856Z,4.32
2023-03-11T11:45:02.725Z,4.60
2023-03-11T11:46:24.262Z,3.83
2023-03-11T11:47:36.062Z,4.22
2023-03-11T11:48:56.054Z,4.80
2023-03-11T11:50:02.239Z,4.00
2023-03-11T11:51:13.440Z,4.57
2023-03-11T11:52:33.469Z,3.95
2023-03-11T11:53:47.141Z,4.65
2023-03-11T11:54:53.426Z,5.10
2023-03-11T11:55:56.058Z,5.20
2023-03-11T11:56:58.925Z,4.88
2023-03-11T11:58:01.560Z,4.93
2023-03-11T11:59:10.690Z,5.88
2023-03-11T12:00:43.331Z,5.30
2023-03-11T12:02:07.856Z,5.00
2023-03-11T12:03:16.636Z,4.95
2023-03-11T12:04:39.207Z,3.92
2023-03-11T12:05:58.182Z,4.90
2023-03-11T12:07:04.433Z,4.55
2023-03-11T12:08:26.219Z,4.55
2023-03-11T12:09:49.811Z,4.53
2023-03-11T12:11:02.882Z,4.32
2023-03-11T12:12:10.825Z,4.03
2023-03-11T12:13:45.663Z,4.85
2023-03-11T12:15:09.980Z,4.13
2023-03-11T12:16:26.429Z,4.60
2023-03-11T12:17:30.290Z,4.80
2023-03-11T12:18:40.652Z,4.65
2023-03-11T12:19:56.443Z,5.07
2023-03-11T12:20:59.420Z,4.15
2023-03-11T12:22:33.440Z,4.30
2023-03-11T12:23:54.162Z,4.57
2023-03-11T12:25:22.080Z,4.40
2023-03-11T12:26:27.307Z,4.30
2023-03-11T12:27:34.469Z,5.22
2023-03-11T12:28:56.921Z,4.82
2023-03-11T12:30:03.883Z,4.18
2023-03-11T12:31:10.136Z,4.18
2023-03-11T12:32:25.173Z,4.22
2023-03-11T12:33:37.996Z,4.47
2023-03-11T12:34:40.660Z,4.45
2023-03-11T12:35:50.944Z,4.75
2023-03-11T12:36:54.238Z,5.00
2023-03-11T12:38:01.340Z,3.92
2023-03-11T12:39:06.675Z,3.88
2023-03-11T12:40:44.516Z,4.78
2023-03-11T12:41:47.233Z,4.70
2023-03-11T12:42:49.697Z,5.03
2023-03-11T12:43:52.192Z,4.75
2023-03-11T12:44:54.605Z,5.10
2023-03-11T12:46:01.027Z,4.90
2023-03-11T12:47:03.894Z,5.15
2023-03-11T12:48:34.669Z,5.15
2023-03-11T12:49:48.248Z,4.93
2023-03-11T12:50:50.836Z,5.15
2023-03-11T12:52:11.774Z,4.45
2023-03-11T12:54:30.745Z,3.60
2023-03-11T12:55:34.864Z,4.47
2023-03-11T12:56:39.744Z,5.45
2023-03-11T12:57:57.059Z,4.38
2023-03-11T12:59:30.034Z,4.75
2023-03-11T13:00:46.495Z,3.88
2023-03-11T13:02:01.332Z,4.22
2023-03-11T13:03:17.961Z,5.38
2023-03-11T13:04:22.063Z,5.55
2023-03-11T13:05:31.672Z,5.57
2023-03-11T13:06:47.580Z,5.22
2023-03-11T13:07:51.543Z,4.63
2023-03-11T13:08:57.940Z,4.50
2023-03-11T13:10:24.541Z,4.60
2023-03-11T13:11:32.811Z,4.63
2023-03-11T13:12:39.396Z,4.70
2023-03-11T13:13:42.474Z,5.72
2023-03-11T13:14:45.000Z,5.78
2023-03-11T13:15:47.914Z,4.20
2023-03-11T13:16:50.788Z,5.82
2023-03-11T13:18:00.696Z,5.03
2023-03-11T13:19:32.100Z,5.00
2023-03-11T13:20:43.188Z,4.43
2023-03-11T13:21:45.864Z,4.75
2023-03-11T13:22:53.997Z,5.43
2023-03-11T13:24:35.096Z,5.20
2023-03-11T13:25:49.915Z,5.25
2023-03-11T13:27:04.414Z,5.35
2023-03-11T13:28:39.396Z,5.38
2023-03-11T13:29:45.115Z,5.32
2023-03-11T13:31:12.176Z,4.85
2023-03-11T13:32:35.785Z,3.80
2023-03-11T13:34:35.596Z,4.53
2023-03-11T13:35:44.272Z,5.00
2023-03-11T13:37:25.916Z,4.95
2023-03-11T13:38:34.036Z,3.92
2023-03-11T13:39:56.954Z,3.78
2023-03-11T13:41:01.516Z,3.80
2023-03-11T13:42:05.777Z,4.28
2023-03-11T13:43:16.593Z,4.20
2023-03-11T13:45:31.642Z,3.20
2023-03-11T13:46:38.507Z,4.13
2023-03-11T13:47:43.730Z,4.30
2023-03-11T13:48:48.384Z,3.63
2023-03-11T13:49:50.947Z,4.03
2023-03-11T13:51:04.589Z,4.78
2023-03-11T13:52:40.513Z,4.10
2023-03-11T13:53:47.333Z,2.95
2023-03-11T13:55:01.541Z,4.93
2023-03-11T13:56:04.690Z,4.75
2023-03-11T13:57:27.760Z,3.85
2023-03-11T13:58:30.199Z,4.28
2023-03-11T13:59:38.099Z,3.70
2023-03-11T14:00:49.257Z,5.13
2023-03-11T14:01:53.489Z,4.30
2023-03-11T14:02:59.605Z,4.75
2023-03-11T14:04:02.255Z,3.95
2023-03-11T14:05:07.551Z,5.15
2023-03-11T14:06:15.659Z,5.28
2023-03-11T14:07:34.449Z,4.65
2023-03-11T14:08:38.289Z,5.25
2023-03-11T14:09:40.840Z,4.55
2023-03-11T14:11:02.325Z,5.30
2023-03-11T14:12:07.883Z,3.78
2023-03-11T14:13:19.636Z,4.57
2023-03-11T14:14:49.518Z,4.60
2023-03-11T14:15:57.833Z,3.80
2023-03-11T14:17:01.568Z,4.47
2023-03-11T14:18:27.655Z,4.47
2023-03-11T14:19:30.510Z,4.00
2023-03-11T14:20:33.212Z,4.45
2023-03-11T14:21:35.952Z,4.00
2023-03-11T14:22:38.872Z,5.10
2023-03-11T14:23:45.587Z,4.65
2023-03-11T14:24:48.496Z,4.18
2023-03-11T14:25:59.431Z,4.57
2023-03-11T14:27:04.164Z,4.88
2023-03-11T14:28:06.599Z,4.53
2023-03-11T14:29:12.108Z,4.40
2023-03-11T14:30:25.217Z,5.00
2023-03-11T14:31:33.801Z,4.55
2023-03-11T14:32:37.542Z,4.90
2023-03-11T14:33:40.091Z,3.70
2023-03-11T14:34:42.639Z,4.72
2023-03-11T14:35:53.542Z,5.35
2023-03-11T14:36:59.041Z,4.60
2023-03-11T14:38:01.957Z,4.28
2023-03-11T14:39:04.458Z,3.83
2023-03-11T14:40:34.304Z,4.15
2023-03-11T14:41:36.941Z,4.43
2023-03-11T14:42:41.237Z,3.80